Time;durP1;ratioP1;P1;durP2;ratioP2;P2;SDS_P1;SDS_P2;PMS_P1;PMS_P2;Temp;Humidity;BMP_temperature;BMP_pressure;BME280_temperature;BME280_humidity;BME280_pressure;Samples;Min_cycle;Max_cycle;Signal;HPM_P1;HPM_P2
2021/01/19 00:00:21;;;;;;;4.53;2.20;;;0.10;99.90;;;;;;5068156;28;20161;-81
2021/01/19 00:02:47;;;;;;;4.83;2.47;;;0.00;99.90;;;;;;5087206;28;20399;-82
2021/01/19 00:05:13;;;;;;;4.97;2.20;;;0.00;99.90;;;;;;5086545;28;20421;-82
2021/01/19 00:07:39;;;;;;;4.53;2.40;;;-0.10;99.90;;;;;;5068226;28;20074;-82
2021/01/19 00:10:05;;;;;;;5.47;2.50;;;-0.10;99.90;;;;;;5074457;28;20061;-80
2021/01/19 00:12:31;;;;;;;4.90;2.43;;;-0.10;99.90;;;;;;5087591;28;20040;-81
2021/01/19 00:14:56;;;;;;;6.63;2.57;;;-0.10;99.90;;;;;;5070649;28;20459;-82
2021/01/19 00:17:22;;;;;;;4.30;2.70;;;-0.20;99.90;;;;;;5072627;28;20056;-82
2021/01/19 00:19:48;;;;;;;4.70;2.70;;;-0.20;99.90;;;;;;5087725;28;20082;-81
2021/01/19 00:22:13;;;;;;;6.33;2.73;;;-0.30;99.90;;;;;;5071433;28;20503;-82
2021/01/19 00:24:39;;;;;;;5.90;2.80;;;-0.30;99.90;;;;;;5087038;28;20035;-82
2021/01/19 00:27:05;;;;;;;4.87;2.90;;;-0.30;99.90;;;;;;5102910;28;20020;-82
2021/01/19 00:29:30;;;;;;;5.00;2.10;;;-0.30;99.90;;;;;;5093236;28;20016;-81
2021/01/19 00:31:56;;;;;;;5.97;3.10;;;-0.40;99.90;;;;;;5097273;28;20029;-81
2021/01/19 00:34:22;;;;;;;9.03;2.60;;;-0.40;99.90;;;;;;5090104;28;20033;-81
2021/01/19 00:36:48;;;;;;;6.17;2.77;;;-0.40;99.90;;;;;;5072081;28;20034;-81
2021/01/19 00:39:14;;;;;;;4.97;2.80;;;-0.40;99.90;;;;;;5073013;28;20020;-81
2021/01/19 00:41:39;;;;;;;5.70;2.97;;;-0.50;99.90;;;;;;5085189;28;20040;-80
2021/01/19 00:44:06;;;;;;;5.93;3.13;;;-0.50;99.90;;;;;;5087163;28;20060;-81
2021/01/19 00:46:32;;;;;;;6.67;3.17;;;-0.50;99.90;;;;;;5065862;28;20023;-81
2021/01/19 00:48:58;;;;;;;5.83;2.73;;;-0.60;99.90;;;;;;5070589;28;20024;-81
2021/01/19 00:51:23;;;;;;;5.90;2.80;;;-0.60;99.90;;;;;;5070707;28;20689;-81
2021/01/19 00:53:49;;;;;;;5.03;2.70;;;-0.70;99.90;;;;;;5069098;28;20093;-80
2021/01/19 00:56:15;;;;;;;4.97;2.53;;;-0.60;99.90;;;;;;5066401;28;20029;-81
2021/01/19 00:58:42;;;;;;;5.87;2.50;;;-0.60;99.90;;;;;;5068860;28;20029;-81
2021/01/19 01:01:08;;;;;;;5.83;2.90;;;-0.40;99.90;;;;;;5071686;28;20045;-81
2021/01/19 01:03:34;;;;;;;6.23;3.40;;;-0.40;99.90;;;;;;5067636;28;20028;-81
2021/01/19 01:06:00;;;;;;;8.10;3.30;;;-0.40;99.90;;;;;;5078868;28;20035;-81
2021/01/19 01:08:26;;;;;;;6.30;3.77;;;-0.40;99.90;;;;;;5067709;28;20043;-81
2021/01/19 01:10:52;;;;;;;8.63;4.07;;;-0.50;99.90;;;;;;5071822;28;20036;-80
2021/01/19 01:13:20;;;;;;;6.13;3.67;;;-0.60;99.90;;;;;;5069939;28;20123;-80
2021/01/19 01:15:46;;;;;;;6.70;3.27;;;-0.60;99.90;;;;;;5070448;28;20036;-79
2021/01/19 01:18:14;;;;;;;6.70;3.40;;;-0.70;99.90;;;;;;5070324;28;20055;-81
2021/01/19 01:20:41;;;;;;;9.30;3.70;;;-0.70;99.90;;;;;;5069072;28;20055;-79
2021/01/19 01:23:08;;;;;;;6.30;3.13;;;-0.70;99.90;;;;;;5069065;28;20087;-82
2021/01/19 01:25:33;;;;;;;6.03;3.30;;;-0.80;99.90;;;;;;5083486;28;20032;-80
2021/01/19 01:28:00;;;;;;;6.13;3.60;;;-0.80;99.90;;;;;;5069498;28;20497;-82
2021/01/19 01:30:25;;;;;;;6.40;3.33;;;-0.80;99.90;;;;;;5068749;28;20032;-81
2021/01/19 01:32:51;;;;;;;6.50;3.53;;;-0.90;99.90;;;;;;5068404;28;20021;-80
2021/01/19 01:35:21;;;;;;;7.93;3.73;;;-0.90;99.90;;;;;;5091596;28;20032;-80
2021/01/19 01:37:49;;;;;;;6.70;3.30;;;-0.90;99.90;;;;;;5080107;28;20028;-82
2021/01/19 01:40:23;;;;;;;6.30;2.90;;;-0.90;99.90;;;;;;5083272;28;20109;-84
2021/01/19 01:42:59;;;;;;;7.13;3.97;;;-0.80;99.90;;;;;;5069656;28;20063;-81
2021/01/19 01:45:27;;;;;;;6.43;3.70;;;-0.80;99.90;;;;;;5084750;28;20027;-79
2021/01/19 01:47:57;;;;;;;6.57;3.70;;;-0.90;99.90;;;;;;5084911;28;20037;-81
2021/01/19 01:50:23;;;;;;;8.02;4.00;;;-0.90;99.90;;;;;;5065148;28;20131;-80
2021/01/19 01:52:50;;;;;;;6.13;3.70;;;-1.00;99.90;;;;;;5070314;28;20031;-81
2021/01/19 01:55:16;;;;;;;9.87;3.87;;;-1.00;99.90;;;;;;5070990;28;20036;-81
2021/01/19 01:57:43;;;;;;;8.07;3.80;;;-1.10;99.90;;;;;;5066346;28;20016;-81
2021/01/19 02:00:11;;;;;;;8.33;3.80;;;-1.10;99.90;;;;;;5066533;28;20167;-81
2021/01/19 02:02:50;;;;;;;6.83;3.43;;;-1.10;99.90;;;;;;5067498;28;20037;-81
2021/01/19 02:05:17;;;;;;;6.93;4.00;;;-1.20;99.90;;;;;;5066702;28;20025;-79
2021/01/19 02:07:58;;;;;;;8.53;4.07;;;-1.20;99.90;;;;;;5082751;28;20036;-80
2021/01/19 02:10:34;;;;;;;10.20;4.17;;;-1.20;99.90;;;;;;5063713;28;20070;-79
2021/01/19 02:13:23;;;;;;;7.90;4.20;;;-1.20;99.90;;;;;;5062010;28;20058;-82
2021/01/19 02:15:57;;;;;;;9.63;4.30;;;-1.30;99.90;;;;;;5058967;28;20056;-81
2021/01/19 02:18:52;;;;;;;9.00;4.10;;;-1.30;99.90;;;;;;5078653;28;20057;-80
2021/01/19 02:21:47;;;;;;;8.13;4.03;;;-1.40;99.90;;;;;;5061177;28;20091;-80
2021/01/19 02:24:22;;;;;;;7.73;4.07;;;-1.40;99.90;;;;;;5062922;28;20025;-80
2021/01/19 02:26:59;;;;;;;7.90;4.10;;;-1.50;99.90;;;;;;5068355;28;20024;-80
2021/01/19 02:29:59;;;;;;;8.43;4.40;;;-1.50;99.90;;;;;;5065261;28;20028;-80
2021/01/19 02:32:49;;;;;;;10.57;4.60;;;-1.50;99.90;;;;;;5066997;28;20086;-80
2021/01/19 02:35:19;;;;;;;;;;;-1.50;99.90;;;;;;5064512;28;20732;-80
2021/01/19 02:38:09;;;;;;;8.73;3.80;;;-1.60;99.90;;;;;;5068674;28;19916;-80
2021/01/19 02:40:34;;;;;;;10.53;4.03;;;-1.60;99.90;;;;;;5058087;28;20044;-80
2021/01/19 02:43:20;;;;;;;7.57;3.47;;;-1.70;99.90;;;;;;5069986;28;20039;-79
2021/01/19 02:45:48;;;;;;;6.70;3.50;;;-1.70;99.90;;;;;;5069376;28;20039;-79
2021/01/19 02:48:16;;;;;;;7.27;3.63;;;-1.80;99.90;;;;;;5063634;28;20016;-79
2021/01/19 02:50:42;;;;;;;7.73;4.10;;;-1.80;99.90;;;;;;5064189;28;20029;-79
2021/01/19 02:53:10;;;;;;;7.80;4.57;;;-1.80;99.90;;;;;;5057501;28;20411;-80
2021/01/19 02:55:36;;;;;;;7.73;4.43;;;-1.90;99.90;;;;;;5068852;28;20036;-79
2021/01/19 02:58:06;;;;;;;7.77;4.20;;;-1.90;99.90;;;;;;5067562;28;20025;-80
2021/01/19 03:00:55;;;;;;;9.00;4.47;;;-1.90;99.90;;;;;;5081275;28;20032;-80
2021/01/19 03:03:22;;;;;;;11.90;4.38;;;-1.90;99.90;;;;;;5062839;28;20437;-80
2021/01/19 03:05:48;;;;;;;9.70;4.73;;;-2.00;99.90;;;;;;5068265;28;20029;-81
2021/01/19 03:08:16;;;;;;;8.73;3.87;;;-2.00;99.90;;;;;;5065943;28;20020;-80
2021/01/19 03:10:42;;;;;;;9.30;5.20;;;-2.00;99.90;;;;;;5067207;28;20085;-82
2021/01/19 03:13:14;;;;;;;9.03;3.83;;;-1.90;99.90;;;;;;5070840;28;20111;-81
2021/01/19 03:15:41;;;;;;;8.00;4.70;;;-1.90;99.90;;;;;;5069077;28;20130;-82
2021/01/19 03:18:07;;;;;;;9.20;5.00;;;-1.90;99.90;;;;;;5083466;28;20093;-81
2021/01/19 03:20:34;;;;;;;10.57;4.90;;;-1.90;99.90;;;;;;5087886;28;20040;-80
2021/01/19 03:23:00;;;;;;;10.93;5.20;;;-1.90;99.90;;;;;;5069364;28;20078;-80
2021/01/19 03:25:26;;;;;;;10.20;5.30;;;-1.90;99.90;;;;;;5069185;28;20028;-81
2021/01/19 03:27:52;;;;;;;9.27;4.47;;;-1.90;99.90;;;;;;5087549;28;20032;-81
2021/01/19 03:30:18;;;;;;;9.77;4.30;;;-1.90;99.90;;;;;;5082039;28;20103;-79
2021/01/19 03:32:43;;;;;;;9.00;4.87;;;-1.90;99.90;;;;;;5072193;28;20039;-80
2021/01/19 03:35:09;;;;;;;12.50;5.20;;;-1.90;99.90;;;;;;5064142;28;20048;-80
2021/01/19 03:37:35;;;;;;;11.23;4.57;;;-1.90;99.90;;;;;;5071073;28;20409;-80
2021/01/19 03:40:05;;;;;;;8.63;5.13;;;-1.90;99.90;;;;;;5072451;28;20036;-79
2021/01/19 03:42:31;;;;;;;9.03;4.40;;;-1.90;99.90;;;;;;5068654;28;20040;-79
2021/01/19 03:44:56;;;;;;;10.10;4.93;;;-1.90;99.90;;;;;;5074833;28;20426;-78
2021/01/19 03:47:22;;;;;;;8.40;4.30;;;-1.80;99.90;;;;;;5071362;28;20037;-79
2021/01/19 03:49:48;;;;;;;9.73;4.43;;;-1.80;99.90;;;;;;5091818;28;20033;-81
2021/01/19 03:52:13;;;;;;;11.17;5.13;;;-1.80;99.90;;;;;;5071492;28;20033;-80
2021/01/19 03:54:39;;;;;;;8.43;4.40;;;-1.80;99.90;;;;;;5087995;28;20562;-81
2021/01/19 03:57:05;;;;;;;8.27;4.27;;;-1.90;99.90;;;;;;5065806;28;20024;-80
2021/01/19 03:59:30;;;;;;;9.93;5.00;;;-1.90;99.90;;;;;;5076295;28;20465;-80
2021/01/19 04:01:56;;;;;;;9.73;4.70;;;-1.90;99.90;;;;;;5084072;28;20088;-80
2021/01/19 04:04:22;;;;;;;12.20;4.90;;;-1.90;99.90;;;;;;5089293;28;20027;-80
2021/01/19 04:06:47;;;;;;;8.87;4.60;;;-1.90;99.90;;;;;;5076477;28;20425;-79
2021/01/19 04:09:13;;;;;;;9.03;4.80;;;-1.90;99.90;;;;;;5074986;28;20048;-80
2021/01/19 04:11:38;;;;;;;9.37;4.17;;;-2.00;99.90;;;;;;5074401;28;20036;-79
2021/01/19 04:14:04;;;;;;;7.57;4.40;;;-2.00;99.90;;;;;;5069055;28;20717;-79
2021/01/19 04:16:30;;;;;;;7.83;4.23;;;-2.00;99.90;;;;;;5071101;28;20024;-80
2021/01/19 04:18:55;;;;;;;8.20;3.90;;;-2.00;99.90;;;;;;5067331;28;20596;-79
2021/01/19 04:21:23;;;;;;;8.03;4.33;;;-2.10;99.90;;;;;;5087032;28;20132;-79
2021/01/19 04:23:49;;;;;;;8.80;4.77;;;-2.10;99.90;;;;;;5070492;28;20016;-79
2021/01/19 04:26:14;;;;;;;8.70;4.37;;;-2.10;99.90;;;;;;5070796;28;20046;-80
2021/01/19 04:28:40;;;;;;;9.73;4.87;;;-2.10;99.90;;;;;;5064844;28;20107;-80
2021/01/19 04:31:06;;;;;;;7.07;3.80;;;-2.20;99.90;;;;;;5062651;28;20037;-80
2021/01/19 04:33:31;;;;;;;8.73;4.43;;;-2.20;99.90;;;;;;5072109;28;20057;-81
2021/01/19 04:35:58;;;;;;;6.90;3.70;;;-2.20;99.90;;;;;;5085816;28;20035;-79
2021/01/19 04:38:23;;;;;;;9.60;4.30;;;-2.30;99.90;;;;;;5067422;28;20035;-80
2021/01/19 04:40:50;;;;;;;7.60;3.63;;;-2.30;99.90;;;;;;5067861;28;20040;-80
2021/01/19 04:43:17;;;;;;;6.80;3.63;;;-2.30;99.90;;;;;;5067846;28;20865;-79
2021/01/19 04:45:43;;;;;;;6.07;3.37;;;-2.30;99.90;;;;;;5068348;28;20502;-80
2021/01/19 04:48:09;;;;;;;7.63;3.47;;;-2.30;99.90;;;;;;5070965;28;20595;-81
2021/01/19 04:50:37;;;;;;;6.50;3.30;;;-2.40;99.90;;;;;;5084003;28;20033;-81
2021/01/19 04:53:03;;;;;;;4.87;2.70;;;-2.40;99.90;;;;;;5071512;28;20048;-77
2021/01/19 04:55:36;;;;;;;5.70;2.93;;;-2.40;99.90;;;;;;5073584;28;20032;-80
2021/01/19 04:58:05;;;;;;;5.07;2.70;;;-2.40;99.90;;;;;;5070122;28;20031;-81
2021/01/19 05:00:35;;;;;;;7.27;3.03;;;-2.40;99.90;;;;;;5074722;28;20048;-81
2021/01/19 05:03:21;;;;;;;6.63;3.00;;;-2.40;99.90;;;;;;5084461;28;20093;-82
2021/01/19 05:05:46;;;;;;;6.47;2.53;;;-2.40;99.90;;;;;;5085549;28;20065;-82
2021/01/19 05:08:25;;;;;;;4.57;2.40;;;-2.50;99.90;;;;;;5066200;28;20047;-83
2021/01/19 05:10:54;;;;;;;5.45;2.15;;;-2.50;99.90;;;;;;5078467;28;20550;-82
2021/01/19 05:13:47;;;;;;;3.43;2.37;;;-2.50;99.90;;;;;;5072362;28;20435;-82
2021/01/19 05:16:23;;;;;;;3.97;2.30;;;-2.50;99.90;;;;;;5070849;28;20387;-76
2021/01/19 05:18:49;;;;;;;3.87;2.03;;;-2.50;99.90;;;;;;5069440;28;20056;-76
2021/01/19 05:21:15;;;;;;;4.60;2.30;;;-2.50;99.90;;;;;;5070275;28;20032;-76
2021/01/19 05:23:41;;;;;;;5.27;2.20;;;-2.50;99.90;;;;;;5068515;28;20016;-77
2021/01/19 05:26:09;;;;;;;4.30;2.30;;;-2.50;99.90;;;;;;5068023;28;20036;-77
2021/01/19 05:28:44;;;;;;;5.87;2.80;;;-2.50;99.90;;;;;;5068660;28;20017;-82
2021/01/19 05:31:15;;;;;;;3.93;1.97;;;-2.50;99.90;;;;;;5065318;28;20032;-82
2021/01/19 05:33:55;;;;;;;4.37;2.30;;;-2.50;99.90;;;;;;5089778;28;20004;-82
2021/01/19 05:36:23;;;;;;;6.67;2.07;;;-2.60;99.90;;;;;;5086301;28;20124;-82
2021/01/19 05:38:52;;;;;;;4.87;2.27;;;-2.60;99.90;;;;;;5069160;28;20072;-81
2021/01/19 05:41:32;;;;;;;4.73;2.10;;;-2.60;99.90;;;;;;5069301;28;20515;-82
2021/01/19 05:44:22;;;;;;;3.73;1.90;;;-2.60;99.90;;;;;;5065828;28;20032;-82
2021/01/19 05:46:58;;;;;;;3.53;2.10;;;-2.60;99.90;;;;;;5069615;28;20119;-83
2021/01/19 05:49:26;;;;;;;5.50;1.90;;;-2.70;99.90;;;;;;5070648;28;20032;-82
2021/01/19 05:51:59;;;;;;;3.23;1.87;;;-2.70;99.90;;;;;;5070899;28;20112;-78
2021/01/19 05:54:31;;;;;;;4.43;2.33;;;-2.70;99.90;;;;;;5068644;28;20025;-76
2021/01/19 05:57:12;;;;;;;6.07;2.50;;;-2.70;99.90;;;;;;5083028;28;20115;-79
2021/01/19 05:59:42;;;;;;;7.63;3.30;;;-2.70;99.90;;;;;;5068353;28;20082;-79
2021/01/19 06:02:12;;;;;;;8.53;2.97;;;-2.80;99.90;;;;;;5067030;28;20047;-76
2021/01/19 06:04:52;;;;;;;6.67;3.00;;;-2.80;99.90;;;;;;5069982;28;20115;-78
2021/01/19 06:07:22;;;;;;;;;;;-2.80;99.90;;;;;;5065429;28;20043;-77
2021/01/19 06:09:47;;;;;;;;;;;-2.80;99.90;;;;;;5070350;28;19909;-77
2021/01/19 06:12:14;;;;;;;6.17;2.63;;;-2.80;99.90;;;;;;5070038;28;19949;-79
2021/01/19 06:14:49;;;;;;;5.77;2.63;;;-2.90;99.90;;;;;;5067525;28;20036;-79
2021/01/19 06:17:20;;;;;;;5.83;2.13;;;-2.90;99.90;;;;;;5067149;28;20048;-77
2021/01/19 06:19:47;;;;;;;4.43;2.30;;;-2.90;99.90;;;;;;5077549;28;20387;-77
2021/01/19 06:22:14;;;;;;;4.80;2.30;;;-2.90;99.90;;;;;;5087007;28;20028;-80
2021/01/19 06:24:41;;;;;;;4.70;2.30;;;-3.00;99.90;;;;;;5078404;28;20029;-76
2021/01/19 06:27:08;;;;;;;4.47;2.47;;;-3.00;99.90;;;;;;5066884;28;20139;-76
2021/01/19 06:29:34;;;;;;;4.23;2.63;;;-3.00;99.90;;;;;;5068741;28;20352;-76
2021/01/19 06:32:03;;;;;;;5.10;2.47;;;-3.00;99.90;;;;;;5064701;28;20115;-76
2021/01/19 06:34:38;;;;;;;6.55;2.80;;;-3.00;99.90;;;;;;5068016;28;20356;-80
2021/01/19 06:37:08;;;;;;;7.13;3.20;;;-3.00;99.90;;;;;;5038718;28;20116;-76
2021/01/19 06:39:38;;;;;;;;;;;-3.00;99.90;;;;;;5067122;28;20024;-78
2021/01/19 06:42:26;;;;;;;9.43;2.40;;;-3.00;99.90;;;;;;5062794;28;19962;-77
2021/01/19 06:44:56;;;;;;;6.65;3.17;;;-3.00;99.90;;;;;;5066926;28;20475;-77
2021/01/19 06:47:22;;;;;;;;;;;-3.00;99.90;;;;;;5064525;28;20043;-77
2021/01/19 06:49:51;;;;;;;7.17;2.50;;;-3.00;99.90;;;;;;5061215;28;19905;-78
2021/01/19 06:52:19;;;;;;;6.80;2.50;;;-3.00;99.90;;;;;;5066952;28;20032;-77
2021/01/19 06:54:54;;;;;;;4.57;2.27;;;-3.00;99.90;;;;;;5067955;28;20036;-77
2021/01/19 06:57:53;;;;;;;4.17;2.63;;;-3.00;99.90;;;;;;5065320;28;20036;-77
2021/01/19 07:00:21;;;;;;;4.00;2.40;;;-3.00;99.90;;;;;;5064995;28;20040;-77
2021/01/19 07:02:53;;;;;;;5.73;3.00;;;-3.00;99.90;;;;;;5067653;28;20048;-76
2021/01/19 07:05:23;;;;;;;7.13;3.10;;;-3.00;99.90;;;;;;5073234;28;20024;-77
2021/01/19 07:08:11;;;;;;;6.07;2.50;;;-3.00;99.90;;;;;;5070979;28;20029;-78
2021/01/19 07:10:48;;;;;;;6.13;2.50;;;-3.00;99.90;;;;;;5067859;28;20129;-77
2021/01/19 07:13:22;;;;;;;4.70;2.33;;;-3.00;99.90;;;;;;5065947;28;20522;-77
2021/01/19 07:16:04;;;;;;;5.83;2.20;;;-3.00;99.90;;;;;;5064495;28;20025;-77
2021/01/19 07:18:51;;;;;;;5.03;2.70;;;-3.00;99.90;;;;;;5066575;28;20056;-76
2021/01/19 07:21:18;;;;;;;5.73;2.67;;;-3.00;99.90;;;;;;5066890;28;20064;-78
2021/01/19 07:23:49;;;;;;;4.30;2.17;;;-3.00;99.90;;;;;;5068823;28;20116;-76
2021/01/19 07:26:34;;;;;;;5.93;2.77;;;-2.90;99.90;;;;;;5065072;28;20028;-76
2021/01/19 07:29:00;;;;;;;4.13;2.17;;;-2.90;99.90;;;;;;5067012;28;20051;-76
2021/01/19 07:31:26;;;;;;;3.27;2.10;;;-2.90;99.90;;;;;;5066171;28;20032;-75
2021/01/19 07:33:58;;;;;;;5.67;2.13;;;-2.90;99.90;;;;;;5061584;28;20029;-77
2021/01/19 07:36:25;;;;;;;5.87;2.30;;;-2.90;99.90;;;;;;5066106;28;20046;-76
2021/01/19 07:38:51;;;;;;;4.57;2.40;;;-2.80;99.90;;;;;;5082689;28;20419;-77
2021/01/19 07:41:29;;;;;;;5.50;2.13;;;-2.80;99.90;;;;;;5065021;28;20098;-76
2021/01/19 07:43:56;;;;;;;5.27;2.30;;;-2.80;99.90;;;;;;5068379;28;20067;-77
2021/01/19 07:46:28;;;;;;;3.50;2.23;;;-2.70;99.90;;;;;;5067020;28;20024;-75
2021/01/19 07:49:05;;;;;;;3.17;1.70;;;-2.70;99.90;;;;;;5067154;28;20467;-76
2021/01/19 07:51:44;;;;;;;3.80;1.77;;;-2.70;99.90;;;;;;5062731;28;20104;-76
2021/01/19 07:54:21;;;;;;;3.47;1.85;;;-2.60;99.90;;;;;;5066070;28;20035;-76
2021/01/19 07:56:47;;;;;;;5.67;2.20;;;-2.50;99.90;;;;;;5066532;28;20031;-77
2021/01/19 07:59:18;;;;;;;3.73;1.40;;;-2.50;99.90;;;;;;5067551;28;20024;-77
2021/01/19 08:01:55;;;;;;;2.10;1.40;;;-2.40;99.90;;;;;;5071545;28;20117;-77
2021/01/19 08:04:28;;;;;;;2.43;1.40;;;-2.40;99.90;;;;;;5071698;28;20478;-76
2021/01/19 08:06:54;;;;;;;4.67;1.93;;;-2.30;99.90;;;;;;5068767;28;20021;-76
2021/01/19 08:09:20;;;;;;;6.93;1.60;;;-2.20;99.90;;;;;;5069117;28;20383;-77
2021/01/19 08:11:46;;;;;;;3.03;1.60;;;-2.20;99.90;;;;;;5068967;28;20071;-79
2021/01/19 08:14:11;;;;;;;3.67;1.40;;;-2.00;99.90;;;;;;5072316;28;20107;-80
2021/01/19 08:16:41;;;;;;;2.43;1.40;;;-2.00;99.90;;;;;;5070998;28;20166;-79
2021/01/19 08:19:14;;;;;;;3.88;1.50;;;-1.90;99.90;;;;;;5068494;28;20410;-77
2021/01/19 08:21:51;;;;;;;5.83;1.73;;;-1.80;99.90;;;;;;5072236;28;20100;-77
2021/01/19 08:24:23;;;;;;;3.13;1.60;;;-1.80;99.90;;;;;;5072372;28;20055;-78
2021/01/19 08:26:49;;;;;;;4.77;1.50;;;-1.70;99.90;;;;;;5078138;28;20735;-78
2021/01/19 08:29:20;;;;;;;2.77;1.30;;;-1.60;99.90;;;;;;5069381;28;20572;-77
2021/01/19 08:31:58;;;;;;;4.30;1.60;;;-1.50;99.90;;;;;;5070243;28;20056;-77
2021/01/19 08:34:26;;;;;;;3.03;1.60;;;-1.40;99.90;;;;;;5072291;28;20020;-78
2021/01/19 08:36:52;;;;;;;3.57;1.43;;;-1.40;99.90;;;;;;5071479;28;20027;-78
2021/01/19 08:39:18;;;;;;;2.27;1.40;;;-1.40;99.90;;;;;;5070565;28;20031;-77
2021/01/19 08:41:54;;;;;;;2.60;1.50;;;-1.30;99.90;;;;;;5067849;28;20483;-77
2021/01/19 08:44:21;;;;;;;3.70;1.60;;;-1.20;99.90;;;;;;5063941;28;20044;-78
2021/01/19 08:46:48;;;;;;;3.83;1.63;;;-1.10;99.90;;;;;;5070819;28;20508;-76
2021/01/19 08:49:15;;;;;;;5.00;1.73;;;-1.00;99.90;;;;;;5072051;28;20103;-77
2021/01/19 08:51:50;;;;;;;3.87;2.17;;;-0.90;99.90;;;;;;5065903;28;20090;-76
2021/01/19 08:54:16;;;;;;;3.17;1.37;;;-0.90;99.90;;;;;;5062155;28;20035;-77
2021/01/19 08:56:45;;;;;;;6.67;2.00;;;-0.90;99.90;;;;;;5068892;28;20052;-78
2021/01/19 08:59:12;;;;;;;2.88;1.88;;;-0.80;99.90;;;;;;5069385;28;20021;-77
2021/01/19 09:02:07;;;;;;;3.03;1.60;;;-0.80;99.90;;;;;;5070048;28;20068;-76
2021/01/19 09:04:33;;;;;;;2.67;1.60;;;-0.90;99.90;;;;;;4983775;28;20065;-77
2021/01/19 09:07:07;;;;;;;3.83;1.70;;;-0.80;99.90;;;;;;4988651;28;20042;-76
2021/01/19 09:09:33;;;;;;;2.67;1.50;;;-0.60;99.90;;;;;;4983621;28;20049;-76
2021/01/19 09:12:00;;;;;;;4.87;1.73;;;-0.60;99.90;;;;;;4989103;28;20030;-76
2021/01/19 09:14:26;;;;;;;3.67;1.90;;;-0.50;99.90;;;;;;4987650;28;20077;-76
2021/01/19 09:16:53;;;;;;;3.03;1.47;;;-0.60;99.90;;;;;;4991773;28;20030;-77
2021/01/19 09:19:19;;;;;;;3.57;1.70;;;-0.50;99.90;;;;;;4988443;28;20038;-76
2021/01/19 09:21:45;;;;;;;5.03;1.70;;;-0.40;99.90;;;;;;4985356;28;20512;-75
2021/01/19 09:24:12;;;;;;;3.20;1.30;;;-0.40;99.90;;;;;;4988916;28;20501;-77
2021/01/19 09:26:55;;;;;;;2.90;1.60;;;-0.30;99.90;;;;;;4986757;28;20192;-76
2021/01/19 09:29:29;;;;;;;2.57;1.23;;;-0.10;99.90;;;;;;4983840;28;20429;-76
2021/01/19 09:31:57;;;;;;;2.00;1.10;;;-0.10;99.90;;;;;;4983212;28;20089;-78
2021/01/19 09:34:24;;;;;;;2.37;1.10;;;0.10;99.90;;;;;;4987710;28;20042;-77
2021/01/19 09:36:49;;;;;;;2.03;1.10;;;0.20;99.90;;;;;;4988413;28;20065;-78
2021/01/19 09:39:29;;;;;;;3.83;1.30;;;0.30;99.90;;;;;;4984945;28;20058;-76
2021/01/19 09:41:57;;;;;;;1.13;0.90;;;0.40;99.90;;;;;;5061140;28;20052;-76
2021/01/19 09:44:24;;;;;;;1.63;0.80;;;0.40;99.90;;;;;;5070376;28;20025;-76
2021/01/19 09:46:53;;;;;;;2.57;1.10;;;0.60;99.90;;;;;;5069582;28;20487;-77
2021/01/19 09:49:21;;;;;;;3.53;1.00;;;0.70;99.90;;;;;;5069569;28;20097;-77
2021/01/19 09:51:46;;;;;;;3.50;0.93;;;0.70;99.90;;;;;;5068640;28;20146;-76
2021/01/19 09:54:12;;;;;;;3.27;0.90;;;0.80;99.90;;;;;;5069265;28;20040;-76
2021/01/19 09:56:37;;;;;;;4.27;0.90;;;0.90;99.90;;;;;;5069241;28;20471;-77
2021/01/19 09:59:05;;;;;;;1.50;0.90;;;0.90;99.90;;;;;;5071537;28;20431;-77
2021/01/19 10:01:31;;;;;;;0.85;0.70;;;0.90;99.90;;;;;;5066742;28;20032;-76
2021/01/19 10:03:58;;;;;;;2.03;1.10;;;0.90;99.90;;;;;;5068806;28;20017;-76
2021/01/19 10:06:25;;;;;;;1.00;0.80;;;1.00;99.90;;;;;;5069374;28;20070;-77
2021/01/19 10:08:56;;;;;;;2.58;1.25;;;1.00;99.90;;;;;;5069905;28;20386;-78
2021/01/19 10:11:28;;;;;;;1.50;1.10;;;1.20;99.90;;;;;;5064627;28;20417;-78
2021/01/19 10:13:53;;;;;;;1.63;0.90;;;1.30;99.90;;;;;;5058683;28;20523;-76
2021/01/19 10:16:26;;;;;;;2.42;1.48;;;1.30;99.90;;;;;;5060818;28;20035;-78
2021/01/19 10:18:51;;;;;;;1.75;1.20;;;1.40;99.90;;;;;;5069231;28;20070;-77
2021/01/19 10:21:31;;;;;;;3.35;2.38;;;1.50;99.90;;;;;;5067676;28;20116;-77
2021/01/19 10:23:57;;;;;;;2.30;1.02;;;1.60;99.90;;;;;;5070310;28;20130;-78
2021/01/19 10:26:30;;;;;;;1.75;1.00;;;1.70;99.90;;;;;;5068387;28;20368;-78
2021/01/19 10:28:57;;;;;;;2.30;1.08;;;1.80;99.90;;;;;;5063746;28;20116;-78
2021/01/19 10:31:26;;;;;;;2.90;1.20;;;1.90;99.90;;;;;;5068000;28;20479;-78
2021/01/19 10:34:00;;;;;;;1.58;0.90;;;2.10;99.90;;;;;;5070077;28;20120;-76
2021/01/19 10:36:26;;;;;;;1.60;0.93;;;2.20;99.90;;;;;;5064257;28;20119;-78
2021/01/19 10:38:53;;;;;;;1.98;1.10;;;2.20;99.90;;;;;;5066062;28;20112;-78
2021/01/19 10:41:29;;;;;;;2.53;1.02;;;2.30;99.90;;;;;;5062494;28;20493;-78
2021/01/19 10:43:56;;;;;;;1.75;1.23;;;2.30;99.90;;;;;;5069005;28;20082;-76
2021/01/19 10:46:24;;;;;;;2.88;1.17;;;2.40;99.90;;;;;;5068041;28;20037;-77
2021/01/19 10:49:11;;;;;;;3.03;1.30;;;2.60;99.90;;;;;;5059566;28;20031;-77
2021/01/19 10:51:37;;;;;;;3.58;1.23;;;2.60;99.90;;;;;;5067701;28;21036;-76
2021/01/19 10:54:19;;;;;;;2.47;1.30;;;2.60;99.90;;;;;;5076040;28;20086;-78
2021/01/19 10:56:46;;;;;;;3.15;1.45;;;2.60;99.90;;;;;;5068820;28;20029;-77
2021/01/19 10:59:12;;;;;;;3.15;1.63;;;2.70;99.90;;;;;;5062852;28;20025;-78
2021/01/19 11:01:38;;;;;;;3.28;1.65;;;2.80;99.90;;;;;;5063480;28;20132;-77
2021/01/19 11:04:06;;;;;;;3.78;1.60;;;2.90;99.90;;;;;;5065518;28;20090;-77
2021/01/19 11:06:34;;;;;;;2.33;1.17;;;3.20;99.90;;;;;;5063728;28;20037;-77
2021/01/19 11:08:59;;;;;;;4.25;1.30;;;3.30;99.90;;;;;;5066735;28;20033;-77
2021/01/19 11:11:26;;;;;;;2.72;1.33;;;3.50;99.90;;;;;;5064557;28;20029;-78
2021/01/19 11:13:53;;;;;;;5.00;2.25;;;3.60;99.90;;;;;;5068111;28;20031;-76
2021/01/19 11:16:18;;;;;;;4.97;2.25;;;3.80;99.90;;;;;;5065340;28;20116;-77
2021/01/19 11:18:44;;;;;;;5.03;2.75;;;3.90;99.90;;;;;;5081428;28;20114;-76
2021/01/19 11:21:10;;;;;;;3.60;1.52;;;4.00;99.90;;;;;;5065284;28;20044;-77
2021/01/19 11:23:36;;;;;;;2.80;1.20;;;4.10;99.90;;;;;;5068501;28;20459;-80
2021/01/19 11:26:01;;;;;;;3.65;1.10;;;4.20;99.90;;;;;;5072501;28;20051;-79
2021/01/19 11:28:27;;;;;;;3.45;1.55;;;4.30;99.90;;;;;;5067945;28;20025;-76
2021/01/19 11:30:53;;;;;;;2.00;1.00;;;4.40;99.90;;;;;;5064712;28;20028;-77
2021/01/19 11:33:19;;;;;;;3.13;1.00;;;4.60;99.90;;;;;;5070725;28;20437;-77
2021/01/19 11:35:45;;;;;;;2.30;1.08;;;4.70;99.90;;;;;;5071584;28;20024;-78
2021/01/19 11:38:11;;;;;;;4.85;1.23;;;4.60;99.90;;;;;;5071966;28;20021;-78
2021/01/19 11:40:38;;;;;;;2.60;1.00;;;4.80;99.90;;;;;;5070763;28;20064;-78
2021/01/19 11:43:03;;;;;;;4.18;0.90;;;4.80;99.90;;;;;;5070863;28;20059;-77
2021/01/19 11:45:29;;;;;;;1.70;0.80;;;5.00;99.90;;;;;;5071568;28;20048;-77
2021/01/19 11:47:55;;;;;;;2.17;0.90;;;4.90;99.90;;;;;;5071665;28;20035;-77
2021/01/19 11:50:21;;;;;;;1.42;0.82;;;5.10;99.90;;;;;;5071584;28;20074;-76
2021/01/19 11:52:47;;;;;;;3.30;0.90;;;4.80;99.90;;;;;;5067776;28;20065;-77
2021/01/19 11:55:13;;;;;;;2.42;0.68;;;4.90;99.90;;;;;;5068079;28;20042;-77
2021/01/19 11:57:39;;;;;;;2.75;0.80;;;4.70;99.90;;;;;;5070309;28;20032;-77
2021/01/19 12:00:07;;;;;;;1.80;0.73;;;4.90;99.90;;;;;;5067212;28;20139;-77
2021/01/19 12:02:33;;;;;;;0.88;0.50;;;5.20;99.90;;;;;;5068168;28;20040;-78
2021/01/19 12:04:59;;;;;;;1.02;0.70;;;5.10;99.90;;;;;;5068760;28;20029;-77
2021/01/19 12:07:24;;;;;;;1.50;0.60;;;5.20;99.90;;;;;;5068112;28;20111;-84
2021/01/19 12:09:50;;;;;;;1.38;0.80;;;5.20;99.90;;;;;;5094937;28;20024;-86
2021/01/19 12:12:15;;;;;;;1.83;1.08;;;5.30;99.90;;;;;;5080414;28;20049;-84
2021/01/19 12:14:41;;;;;;;1.33;0.63;;;5.30;99.90;;;;;;5068509;28;20017;-84
2021/01/19 12:17:07;;;;;;;1.48;0.80;;;5.20;99.90;;;;;;5074373;28;20059;-82
2021/01/19 12:19:32;;;;;;;1.40;0.80;;;5.30;99.90;;;;;;5073402;28;20029;-79
2021/01/19 12:21:58;;;;;;;0.77;0.60;;;5.30;99.90;;;;;;5070870;28;20045;-77
2021/01/19 12:24:24;;;;;;;1.02;0.70;;;5.30;99.90;;;;;;5066519;28;20396;-80
2021/01/19 12:26:53;;;;;;;0.98;0.38;;;5.10;99.90;;;;;;5089673;28;20066;-83
2021/01/19 12:29:20;;;;;;;1.63;0.90;;;5.00;99.90;;;;;;5084726;28;20381;-82
2021/01/19 12:31:46;;;;;;;1.00;0.70;;;5.00;99.90;;;;;;5087112;28;20103;-80
2021/01/19 12:34:12;;;;;;;0.30;0.30;;;5.00;99.90;;;;;;5071182;28;20802;-78
2021/01/19 12:36:37;;;;;;;1.10;0.50;;;5.00;99.90;;;;;;5070842;28;20024;-80
2021/01/19 12:39:04;;;;;;;1.20;0.60;;;4.90;99.90;;;;;;5063000;28;20031;-80
2021/01/19 12:41:30;;;;;;;0.85;0.50;;;4.90;99.90;;;;;;5064039;28;20036;-77
2021/01/19 12:43:55;;;;;;;2.08;0.60;;;4.90;99.90;;;;;;5070376;28;20020;-75
2021/01/19 12:46:21;;;;;;;1.88;0.70;;;4.90;99.90;;;;;;5068552;28;20090;-74
2021/01/19 12:48:47;;;;;;;1.35;0.70;;;4.90;99.90;;;;;;5085030;28;20037;-74
2021/01/19 12:51:17;;;;;;;2.03;0.65;;;4.90;99.90;;;;;;5077599;28;20032;-76
2021/01/19 12:53:44;;;;;;;1.30;0.55;;;4.90;99.90;;;;;;5063416;28;20036;-75
2021/01/19 12:56:11;;;;;;;0.70;0.40;;;4.90;99.90;;;;;;5069054;28;20034;-76
2021/01/19 12:58:37;;;;;;;1.17;0.57;;;5.00;99.90;;;;;;5069081;28;20032;-75
2021/01/19 13:01:04;;;;;;;0.90;0.60;;;5.00;99.90;;;;;;5068954;28;20593;-78